Time;durP1;ratioP1;P1;durP2;ratioP2;P2;SDS_P1;SDS_P2;PMS_P1;PMS_P2;Temp;Humidity;BMP_temperature;BMP_pressure;BME280_temperature;BME280_humidity;BME280_pressure;Samples;Min_cycle;Max_cycle;Signal;HPM_P1;HPM_P2
2020/12/21 00:01:56;;;;;;;58.13;33.87;;;;;;;-1.57;88.14;100014.91;124819;1098;65258;-81
2020/12/21 00:04:23;;;;;;;61.50;35.40;;;;;;;-1.56;87.84;100014.88;124798;1100;65192;-81
2020/12/21 00:06:52;;;;;;;64.03;35.53;;;;;;;-1.52;88.21;100015.77;124807;1100;65175;-81
2020/12/21 00:09:19;;;;;;;;;;;;;;;-1.52;88.64;100005.31;124915;1100;65188;-81
2020/12/21 00:11:46;;;;;;;57.70;32.95;;;;;;;-1.55;88.25;100011.42;124846;1098;65217;-81
2020/12/21 00:14:13;;;;;;;51.70;31.83;;;;;;;-1.54;88.31;100017.51;124863;1100;65224;-81
2020/12/21 00:16:47;;;;;;;53.93;32.10;;;;;;;-1.58;88.05;100011.43;124853;1100;65141;-81
2020/12/21 00:19:18;;;;;;;47.23;29.93;;;;;;;-1.59;87.99;100017.51;124798;1100;65294;-81
2020/12/21 00:21:46;;;;;;;50.30;30.50;;;;;;;-1.67;87.91;100013.17;124769;1101;65156;-81
2020/12/21 00:24:13;;;;;;;57.03;33.27;;;;;;;-1.71;88.28;100014.93;124800;1101;65171;-81
2020/12/21 00:26:44;;;;;;;67.97;37.37;;;;;;;-1.72;88.15;100022.75;124842;1098;65281;-81
2020/12/21 00:29:12;;;;;;;58.83;33.63;;;;;;;-1.69;87.96;100023.61;124822;1101;65101;-81
2020/12/21 00:31:38;;;;;;;63.90;35.50;;;;;;;-1.65;88.79;100021.89;124909;1101;66232;-81
2020/12/21 00:34:06;;;;;;;54.90;32.47;;;;;;;-1.68;87.83;100027.13;124767;1101;65240;-81
2020/12/21 00:36:45;;;;;;;52.75;32.30;;;;;;;-1.70;88.60;100031.47;124793;1101;65146;-81
2020/12/21 00:39:12;;;;;;;53.43;30.87;;;;;;;-1.74;87.76;100025.36;124803;1101;65540;-82
2020/12/21 00:41:39;;;;;;;59.07;32.87;;;;;;;-1.73;88.70;100021.89;124792;1101;65118;-82
2020/12/21 00:44:06;;;;;;;52.97;30.90;;;;;;;-1.77;87.98;100021.00;124806;1101;65178;-82
2020/12/21 00:46:32;;;;;;;51.30;31.00;;;;;;;-1.77;88.58;100022.75;124812;1100;65303;-82
2020/12/21 00:49:00;;;;;;;54.40;32.40;;;;;;;-1.75;88.15;100021.02;124817;1101;65198;-83
2020/12/21 00:51:27;;;;;;;58.50;33.90;;;;;;;-1.72;88.07;100018.39;124875;1101;65554;-82
2020/12/21 00:53:53;;;;;;;61.83;34.73;;;;;;;-1.66;88.26;100010.57;124840;1101;65156;-82
2020/12/21 00:56:21;;;;;;;57.10;34.20;;;;;;;-1.63;88.24;100018.41;124872;1100;65076;-82
2020/12/21 00:58:49;;;;;;;57.47;35.47;;;;;;;-1.60;88.55;100025.38;124805;1101;65150;-84
2020/12/21 01:01:22;;;;;;;57.43;33.67;;;;;;;-1.55;88.54;100031.47;124772;1101;65160;-83
2020/12/21 01:03:48;;;;;;;57.75;33.95;;;;;;;-1.51;88.34;100024.48;124813;1101;65141;-83
2020/12/21 01:06:15;;;;;;;59.50;33.67;;;;;;;-1.53;87.94;100037.53;124791;1101;65201;-82
2020/12/21 01:08:45;;;;;;;67.05;43.00;;;;;;;-1.54;87.41;100030.58;124757;1101;65185;-83
2020/12/21 01:11:13;;;;;;;67.15;43.73;;;;;;;-1.57;87.42;100035.81;124788;1101;65598;-82
2020/12/21 01:13:40;;;;;;;60.63;37.37;;;;;;;-1.59;88.12;100027.96;124826;1101;65131;-80
2020/12/21 01:16:07;;;;;;;61.37;36.20;;;;;;;-1.60;87.98;100023.63;124751;1101;65146;-82
2020/12/21 01:18:35;;;;;;;59.17;34.43;;;;;;;-1.55;88.16;100028.84;124831;1101;65153;-83
2020/12/21 01:21:03;;;;;;;56.07;34.23;;;;;;;-1.56;88.30;100022.73;124820;1101;65156;-82
2020/12/21 01:23:29;;;;;;;57.35;34.50;;;;;;;-1.58;87.53;100021.88;124767;1101;65323;-80
2020/12/21 01:25:56;;;;;;;58.00;33.05;;;;;;;-1.61;87.43;100024.47;124783;1101;65141;-82
2020/12/21 01:28:22;;;;;;;57.67;33.87;;;;;;;-1.71;87.70;100022.77;124856;1100;65175;-82
2020/12/21 01:30:49;;;;;;;55.90;33.75;;;;;;;-1.75;87.74;100012.31;124824;1100;65137;-82
2020/12/21 01:33:16;;;;;;;59.87;31.63;;;;;;;-1.79;87.46;100019.26;124840;1100;65239;-81
2020/12/21 01:35:42;;;;;;;63.07;35.63;;;;;;;-1.81;87.72;100016.66;124984;1098;65150;-82
2020/12/21 01:38:09;;;;;;;60.10;34.80;;;;;;;-1.78;87.70;100015.80;124949;1098;65154;-82
2020/12/21 01:40:35;;;;;;;61.70;34.97;;;;;;;-1.75;88.45;100015.78;124871;1098;65165;-82
2020/12/21 01:43:02;;;;;;;58.17;33.77;;;;;;;-1.70;88.44;100023.63;124833;1100;65083;-82
2020/12/21 01:45:28;;;;;;;52.57;31.60;;;;;;;-1.72;87.44;100030.59;124932;1098;65176;-82
2020/12/21 01:47:55;;;;;;;55.77;32.97;;;;;;;-1.80;87.83;100026.23;124905;1099;65320;-82
2020/12/21 01:50:21;;;;;;;55.90;32.10;;;;;;;-1.81;87.62;100019.28;124880;1100;65156;-82
2020/12/21 01:52:48;;;;;;;52.40;32.15;;;;;;;-1.84;88.12;100014.06;124801;1101;65160;-82
2020/12/21 01:55:14;;;;;;;50.70;33.85;;;;;;;-1.85;88.20;100014.91;124845;1100;65158;-82
2020/12/21 01:57:41;;;;;;;51.20;32.80;;;;;;;-1.87;87.88;100019.29;124823;1098;65169;-82
2020/12/21 02:00:07;;;;;;;52.98;30.85;;;;;;;-1.91;87.84;100024.51;124806;1100;65316;-82
2020/12/21 02:02:35;;;;;;;44.00;26.80;;;;;;;-1.96;87.23;100013.19;124915;1099;65153;-82
2020/12/21 02:05:02;;;;;;;52.33;32.63;;;;;;;-1.99;87.38;100020.14;124903;1100;65153;-82
2020/12/21 02:07:29;;;;;;;48.13;31.20;;;;;;;-2.02;88.01;100020.15;124950;1099;65137;-82
2020/12/21 02:09:56;;;;;;;60.77;41.10;;;;;;;-2.05;88.03;100020.16;124773;1101;65210;-81
2020/12/21 02:12:23;;;;;;;56.53;35.83;;;;;;;-1.99;88.37;100021.89;124767;1101;65233;-82
2020/12/21 02:14:49;;;;;;;51.87;31.70;;;;;;;-1.94;88.30;100029.73;124780;1101;65136;-82
2020/12/21 02:17:16;;;;;;;54.70;32.65;;;;;;;-1.94;87.46;100014.93;124767;1101;65149;-82
2020/12/21 02:19:42;;;;;;;49.47;29.67;;;;;;;-1.96;88.13;100023.64;124809;1101;65143;-82
2020/12/21 02:22:11;;;;;;;50.77;30.97;;;;;;;-1.97;87.29;100029.70;124762;1101;65239;-82
2020/12/21 02:24:41;;;;;;;47.43;29.07;;;;;;;-1.99;87.52;100030.59;124767;1101;65076;-82
2020/12/21 02:27:07;;;;;;;52.45;31.20;;;;;;;-1.96;88.25;100026.25;124794;1100;65150;-82
2020/12/21 02:29:34;;;;;;;53.67;30.20;;;;;;;-1.95;88.30;100021.00;124773;1101;65240;-82
2020/12/21 02:32:00;;;;;;;49.23;30.47;;;;;;;-1.96;87.21;100018.41;124835;1100;65172;-82
2020/12/21 02:34:27;;;;;;;50.70;31.00;;;;;;;-1.97;87.85;100028.00;124812;1100;65485;-82
2020/12/21 02:36:56;;;;;;;54.63;31.10;;;;;;;-1.94;87.62;100032.34;124815;1100;65159;-82
2020/12/21 02:39:23;;;;;;;52.83;31.87;;;;;;;-1.94;88.08;100027.98;124781;1099;65198;-82
2020/12/21 02:41:51;;;;;;;55.70;33.10;;;;;;;-1.91;88.22;100032.34;124766;1100;65224;-82
2020/12/21 02:44:18;;;;;;;58.60;32.70;;;;;;;-1.92;87.61;100028.87;124909;1098;65256;-81
2020/12/21 02:46:45;;;;;;;52.87;32.50;;;;;;;-1.89;87.42;100026.25;124812;1101;65184;-82
2020/12/21 02:49:13;;;;;;;60.00;34.57;;;;;;;-1.89;88.04;100026.25;124832;1100;65287;-82
2020/12/21 02:51:39;;;;;;;59.30;36.57;;;;;;;-1.85;87.44;100016.66;124999;1099;65179;-81
2020/12/21 02:54:06;;;;;;;59.97;40.50;;;;;;;-1.85;87.45;100027.97;125149;1101;65159;-83
2020/12/21 02:56:32;;;;;;;57.60;33.57;;;;;;;-1.86;87.28;100028.86;125016;1100;65093;-81
2020/12/21 02:58:58;;;;;;;60.28;33.30;;;;;;;-1.85;87.84;100033.20;124820;1100;65137;-82
2020/12/21 03:01:25;;;;;;;62.50;36.85;;;;;;;-1.83;87.91;100021.02;124711;1101;65246;-84
2020/12/21 03:03:51;;;;;;;56.20;35.10;;;;;;;-1.81;87.74;100024.50;124824;1100;65227;-82
2020/12/21 03:06:18;;;;;;;55.97;32.53;;;;;;;-1.76;87.73;100014.06;124898;1098;65153;-82
2020/12/21 03:08:45;;;;;;;59.30;34.97;;;;;;;-1.73;88.05;100021.03;124803;1101;65268;-82
2020/12/21 03:11:12;;;;;;;53.93;33.13;;;;;;;-1.71;87.92;100016.64;124845;1100;65149;-83
2020/12/21 03:13:38;;;;;;;56.70;32.87;;;;;;;-1.75;87.39;100021.02;124808;1100;65194;-81
2020/12/21 03:16:05;;;;;;;53.80;31.50;;;;;;;-1.78;87.57;100015.80;124873;1098;65146;-81
2020/12/21 03:18:31;;;;;;;53.63;32.00;;;;;;;-1.76;87.43;100006.22;124788;1101;65593;-81
2020/12/21 03:20:58;;;;;;;58.00;32.70;;;;;;;-1.73;87.74;100014.05;124780;1098;65156;-81
2020/12/21 03:23:24;;;;;;;54.53;31.43;;;;;;;-1.71;87.70;100007.09;124816;1099;65131;-81
2020/12/21 03:25:51;;;;;;;50.90;30.57;;;;;;;-1.71;87.78;100001.86;124788;1100;65248;-81
2020/12/21 03:28:17;;;;;;;53.50;32.23;;;;;;;-1.70;87.23;100006.20;124767;1101;65201;-81
2020/12/21 03:30:44;;;;;;;55.30;34.65;;;;;;;-1.69;87.61;100001.84;124795;1101;65337;-82
2020/12/21 03:33:10;;;;;;;53.63;35.83;;;;;;;-1.66;87.56;99999.22;124781;1101;65143;-81
2020/12/21 03:35:37;;;;;;;68.07;40.67;;;;;;;-1.65;87.56;100003.59;124892;1101;65573;-83
2020/12/21 03:38:03;;;;;;;59.20;37.57;;;;;;;-1.67;87.61;100003.58;125326;1101;65144;-82
2020/12/21 03:40:30;;;;;;;57.47;36.67;;;;;;;-1.66;87.75;100001.83;124923;1101;65133;-86
2020/12/21 03:42:56;;;;;;;51.75;31.10;;;;;;;-1.64;87.33;100008.80;124903;1102;65226;-89
2020/12/21 03:45:23;;;;;;;57.03;37.23;;;;;;;-1.61;87.91;100005.31;124912;1101;65144;-89
2020/12/21 03:47:49;;;;;;;99.80;65.47;;;;;;;-1.59;87.48;100012.28;124934;1101;65139;-88
2020/12/21 03:50:18;;;;;;;73.17;45.90;;;;;;;-1.57;87.76;100007.06;124921;1101;65280;-89
2020/12/21 03:52:45;;;;;;;58.13;36.27;;;;;;;-1.53;87.61;100019.23;124950;1101;65159;-88
2020/12/21 03:55:12;;;;;;;69.23;43.87;;;;;;;-1.48;88.01;100017.48;125271;1102;65245;-87
2020/12/21 03:57:38;;;;;;;65.13;44.13;;;;;;;-1.45;87.76;100016.61;124821;1098;65547;-88
2020/12/21 04:00:07;;;;;;;65.47;44.60;;;;;;;-1.39;87.81;100014.01;124929;1100;65235;-88
2020/12/21 04:02:34;;;;;;;60.45;36.20;;;;;;;-1.37;87.57;100018.36;124854;1101;65272;-88
2020/12/21 04:05:06;;;;;;;45.27;28.50;;;;;;;-1.32;87.90;100023.55;124967;1100;65223;-88
2020/12/21 04:07:37;;;;;;;46.77;29.20;;;;;;;-1.36;87.15;100014.86;124933;1101;66759;-87
2020/12/21 04:10:07;;;;;;;48.57;29.90;;;;;;;-1.35;87.01;100013.97;124950;1100;65329;-90
2020/12/21 04:12:35;;;;;;;47.50;29.90;;;;;;;-1.30;87.68;100008.74;124932;1100;65130;-87
2020/12/21 04:15:06;;;;;;;48.20;31.30;;;;;;;-1.28;86.99;100019.21;124829;1101;65207;-87
2020/12/21 04:17:33;;;;;;;51.53;31.60;;;;;;;-1.31;86.77;100014.86;124875;1100;65245;-87
2020/12/21 04:19:59;;;;;;;48.50;30.73;;;;;;;-1.28;86.84;100027.92;124885;1100;65229;-87
2020/12/21 04:22:26;;;;;;;53.93;33.53;;;;;;;-1.24;86.96;100024.41;124964;1101;65294;-86
2020/12/21 04:24:52;;;;;;;49.13;31.27;;;;;;;-1.24;87.28;100026.16;124902;1101;65156;-83
2020/12/21 04:27:18;;;;;;;52.43;30.67;;;;;;;-1.22;86.78;100037.49;124822;1100;65287;-79
2020/12/21 04:29:45;;;;;;;46.50;30.93;;;;;;;-1.22;86.83;100042.72;124836;1101;65176;-80
2020/12/21 04:32:12;;;;;;;52.88;32.13;;;;;;;-1.22;87.24;100035.73;124802;1101;65130;-80
2020/12/21 04:34:38;;;;;;;52.03;32.43;;;;;;;-1.21;87.41;100031.38;124751;1101;65198;-80
2020/12/21 04:37:04;;;;;;;49.17;32.87;;;;;;;-1.21;86.86;100034.89;124783;1101;65271;-80
2020/12/21 04:39:31;;;;;;;46.93;30.67;;;;;;;-1.19;87.33;100025.27;124761;1101;65201;-79
2020/12/21 04:41:59;;;;;;;48.07;31.77;;;;;;;-1.16;87.18;100027.91;124803;1100;65572;-79
2020/12/21 04:44:27;;;;;;;53.73;38.20;;;;;;;-1.16;87.49;100014.83;124739;1101;65137;-80
2020/12/21 04:46:58;;;;;;;50.93;34.17;;;;;;;-1.09;87.35;100017.41;125299;1098;65627;-79
2020/12/21 04:49:27;;;;;;;53.13;36.13;;;;;;;-1.11;86.91;100020.02;124751;1101;65130;-80
2020/12/21 04:51:53;;;;;;;54.17;33.63;;;;;;;-1.09;87.31;100025.26;124846;1100;65187;-80
2020/12/21 04:54:20;;;;;;;48.20;31.50;;;;;;;-1.06;86.66;100013.02;124709;1101;65117;-80
2020/12/21 04:56:47;;;;;;;54.80;34.30;;;;;;;-1.02;87.47;100017.38;124788;1101;65136;-80
2020/12/21 04:59:14;;;;;;;50.20;34.35;;;;;;;-1.01;86.97;100016.50;125172;1098;65266;-80
2020/12/21 05:01:41;;;;;;;51.75;33.35;;;;;;;-1.06;86.44;100018.25;124781;1101;65269;-80
2020/12/21 05:04:07;;;;;;;48.90;32.60;;;;;;;-1.07;87.15;100019.14;124673;1101;65179;-80
2020/12/21 05:06:34;;;;;;;52.33;31.63;;;;;;;-1.09;87.12;100025.26;124721;1101;65671;-80
2020/12/21 05:09:08;;;;;;;53.13;33.97;;;;;;;-1.09;86.67;100023.50;124733;1101;65255;-80
2020/12/21 05:11:40;;;;;;;56.50;34.65;;;;;;;-1.08;86.47;100022.62;124782;1101;65161;-80
2020/12/21 05:14:07;;;;;;;55.70;35.37;;;;;;;-1.10;86.96;100024.39;124848;1098;65248;-78
2020/12/21 05:16:34;;;;;;;56.67;34.00;;;;;;;-1.08;86.34;100032.22;124680;1101;65227;-79
2020/12/21 05:19:02;;;;;;;56.83;34.77;;;;;;;-1.05;87.00;100025.25;124730;1101;65238;-80
2020/12/21 05:21:30;;;;;;;57.43;37.07;;;;;;;-1.05;86.98;100029.58;124722;1101;65118;-79
2020/12/21 05:24:01;;;;;;;52.73;36.33;;;;;;;-1.03;87.07;100022.61;124745;1101;65153;-79
2020/12/21 05:26:30;;;;;;;66.77;43.77;;;;;;;-1.03;86.92;100039.17;124747;1100;65283;-79
2020/12/21 05:28:57;;;;;;;58.50;36.70;;;;;;;-1.01;86.79;100029.58;124695;1101;65185;-79
2020/12/21 05:31:25;;;;;;;63.90;42.60;;;;;;;-1.01;87.08;100039.18;124711;1101;65153;-79
2020/12/21 05:33:52;;;;;;;66.80;44.00;;;;;;;-1.00;86.55;100038.29;124708;1101;65169;-79
2020/12/21 05:36:23;;;;;;;63.27;38.90;;;;;;;-0.95;86.79;100044.37;124708;1101;65169;-79
2020/12/21 05:38:58;;;;;;;58.57;38.27;;;;;;;-0.93;86.90;100032.17;124849;1099;65132;-79
2020/12/21 05:41:25;;;;;;;63.50;39.70;;;;;;;-0.89;86.59;100026.06;124885;1098;65274;-79
2020/12/21 05:43:52;;;;;;;63.03;41.97;;;;;;;-0.86;87.16;100031.28;124853;1099;65188;-79
2020/12/21 05:46:24;;;;;;;54.30;37.87;;;;;;;-0.82;86.61;100019.04;124869;1100;65634;-79
2020/12/21 05:48:53;;;;;;;62.90;40.13;;;;;;;-0.82;87.04;100024.27;124760;1100;65136;-79
2020/12/21 05:51:24;;;;;;;56.33;38.60;;;;;;;-0.81;87.04;100034.75;124775;1100;65159;-79
2020/12/21 05:53:55;;;;;;;61.73;38.53;;;;;;;-0.76;86.86;100032.12;124831;1098;65201;-79
2020/12/21 05:56:24;;;;;;;59.27;38.23;;;;;;;-0.75;87.32;100036.47;124701;1101;65134;-79
2020/12/21 05:58:52;;;;;;;61.87;37.83;;;;;;;-0.77;86.76;100039.08;124723;1101;65355;-79
2020/12/21 06:01:19;;;;;;;57.10;39.00;;;;;;;-0.73;86.89;100032.97;124712;1099;65131;-79
2020/12/21 06:03:49;;;;;;;53.30;35.15;;;;;;;-0.71;86.99;100044.30;124723;1100;65134;-79
2020/12/21 06:06:23;;;;;;;58.07;37.57;;;;;;;-0.71;87.09;100038.17;124744;1099;65153;-80
2020/12/21 06:08:54;;;;;;;56.55;37.95;;;;;;;-0.74;86.61;100035.58;124770;1100;65144;-79
2020/12/21 06:11:26;;;;;;;62.07;38.63;;;;;;;-0.74;87.06;100031.23;124826;1100;65632;-79
2020/12/21 06:14:17;;;;;;;52.03;36.97;;;;;;;-0.73;86.44;100034.72;124928;1099;65533;-80
2020/12/21 06:16:44;;;;;;;57.15;37.40;;;;;;;-0.72;87.38;100041.68;124836;1098;65575;-80
2020/12/21 06:19:12;;;;;;;54.83;38.03;;;;;;;-0.68;86.76;100041.67;124725;1101;65253;-80
2020/12/21 06:21:49;;;;;;;57.73;38.87;;;;;;;-0.65;87.41;100046.02;125027;1099;65150;-80
2020/12/21 06:24:18;;;;;;;56.67;39.90;;;;;;;-0.65;86.92;100051.26;124844;1099;65160;-80
2020/12/21 06:26:45;;;;;;;57.00;37.10;;;;;;;-0.64;87.17;100052.98;124800;1100;65179;-80
2020/12/21 06:29:24;;;;;;;61.97;42.37;;;;;;;-0.64;86.73;100054.73;124777;1101;65146;-80
2020/12/21 06:32:01;;;;;;;72.37;47.87;;;;;;;-0.59;87.11;100059.08;124971;1098;65140;-80
2020/12/21 06:34:27;;;;;;;72.37;46.27;;;;;;;-0.58;86.98;100055.59;124758;1101;65242;-80
2020/12/21 06:37:08;;;;;;;61.40;40.80;;;;;;;-0.55;87.28;100058.20;124766;1101;65159;-80
2020/12/21 06:39:37;;;;;;;68.73;42.90;;;;;;;-0.56;87.08;100052.95;124969;1098;65160;-80
2020/12/21 06:42:06;;;;;;;65.70;43.57;;;;;;;-0.54;87.43;100051.20;124803;1101;65159;-81
2020/12/21 06:44:34;;;;;;;67.90;41.23;;;;;;;-0.50;86.81;100045.05;124755;1101;65139;-80
2020/12/21 06:47:00;;;;;;;60.87;39.17;;;;;;;-0.50;86.93;100045.05;124822;1100;65290;-81
2020/12/21 06:49:27;;;;;;;60.30;37.37;;;;;;;-0.51;86.61;100043.33;124788;1101;65290;-81
2020/12/21 06:51:54;;;;;;;59.50;39.23;;;;;;;-0.51;87.26;100040.71;124899;1101;65140;-80
2020/12/21 06:54:20;;;;;;;60.63;41.03;;;;;;;-0.52;86.57;100046.84;124928;1098;65093;-81
2020/12/21 06:56:49;;;;;;;59.23;40.23;;;;;;;-0.54;86.54;100051.20;124783;1101;65313;-80
2020/12/21 06:59:17;;;;;;;59.87;40.27;;;;;;;-0.55;87.08;100046.86;124926;1098;65191;-82
2020/12/21 07:01:46;;;;;;;63.07;40.10;;;;;;;-0.56;86.53;100053.81;124753;1101;65153;-79
2020/12/21 07:04:30;;;;;;;61.73;38.37;;;;;;;-0.54;86.76;100051.20;124773;1101;65208;-80
2020/12/21 07:07:00;;;;;;;71.00;42.87;;;;;;;-0.50;87.14;100053.81;124885;1099;65185;-79
2020/12/21 07:09:28;;;;;;;72.25;46.45;;;;;;;-0.45;87.19;100051.14;124705;1101;65172;-81
2020/12/21 07:12:06;;;;;;;64.93;45.27;;;;;;;-0.38;87.32;100054.61;124735;1101;65274;-80
2020/12/21 07:14:38;;;;;;;73.47;53.17;;;;;;;-0.34;87.20;100054.59;124714;1100;65249;-80
2020/12/21 07:17:09;;;;;;;67.03;53.00;;;;;;;-0.30;87.37;100058.92;124713;1101;65182;-79
2020/12/21 07:19:39;;;;;;;73.43;54.50;;;;;;;-0.30;87.27;100053.69;124688;1099;65626;-79
2020/12/21 07:22:07;;;;;;;75.10;52.95;;;;;;;-0.26;87.12;100046.70;124862;1098;65144;-79
2020/12/21 07:24:34;;;;;;;78.43;54.73;;;;;;;-0.21;86.72;100050.16;124685;1101;65286;-79
2020/12/21 07:27:02;;;;;;;69.53;47.47;;;;;;;-0.19;86.50;100045.75;124698;1100;65140;-79
2020/12/21 07:29:37;;;;;;;59.77;40.27;;;;;;;-0.20;86.27;100049.27;124756;1101;65154;-79
2020/12/21 07:32:04;;;;;;;64.00;42.07;;;;;;;-0.21;86.82;100052.78;124797;1101;65147;-79
2020/12/21 07:34:31;;;;;;;71.13;46.80;;;;;;;-0.20;86.65;100059.75;124802;1099;65137;-79
2020/12/21 07:36:58;;;;;;;70.40;46.60;;;;;;;-0.16;86.44;100055.34;124775;1101;65140;-79
2020/12/21 07:39:25;;;;;;;73.37;45.63;;;;;;;-0.10;87.20;100043.09;124781;1101;65338;-81
2020/12/21 07:41:54;;;;;;;64.30;44.10;;;;;;;-0.07;86.45;100045.69;124763;1099;65129;-81
2020/12/21 07:44:47;;;;;;;73.75;46.15;;;;;;;-0.04;86.99;100045.66;124815;1100;65133;-79
2020/12/21 07:47:24;;;;;;;86.73;54.17;;;;;;;0.01;86.95;100042.15;124763;1101;65154;-79
2020/12/21 07:49:51;;;;;;;84.03;54.37;;;;;;;0.09;86.42;100045.58;124834;1100;65178;-79
2020/12/21 07:52:18;;;;;;;86.93;50.13;;;;;;;0.12;86.13;100051.66;124704;1101;65198;-79
2020/12/21 07:54:45;;;;;;;77.03;48.67;;;;;;;0.13;86.23;100045.55;124711;1100;65133;-79
2020/12/21 07:57:14;;;;;;;77.17;48.00;;;;;;;0.15;86.30;100048.14;124698;1101;65137;-79
2020/12/21 07:59:40;;;;;;;88.07;55.07;;;;;;;0.18;85.97;100042.88;124761;1101;65249;-79
2020/12/21 08:02:09;;;;;;;95.50;57.67;;;;;;;0.18;86.42;100051.59;124709;1099;65176;-80
2020/12/21 08:04:36;;;;;;;98.20;60.70;;;;;;;0.20;86.00;100043.73;124771;1100;65179;-80
2020/12/21 08:07:07;;;;;;;98.37;59.87;;;;;;;0.24;86.58;100047.19;124806;1101;65351;-80
2020/12/21 08:09:41;;;;;;;86.90;54.25;;;;;;;0.28;86.51;100044.54;124813;1101;65157;-80
2020/12/21 08:12:14;;;;;;;82.27;51.60;;;;;;;0.35;86.41;100041.00;124785;1099;65273;-80
2020/12/21 08:14:42;;;;;;;92.70;58.37;;;;;;;0.41;86.55;100050.55;124842;1099;65153;-80
2020/12/21 08:17:14;;;;;;;102.70;62.30;;;;;;;0.46;86.38;100038.27;124777;1100;65159;-80
2020/12/21 08:19:54;;;;;;;95.87;60.10;;;;;;;0.51;86.00;100046.97;124786;1101;65134;-80
2020/12/21 08:22:25;;;;;;;96.42;60.28;;;;;;;0.56;86.37;100042.55;124806;1100;65114;-80
2020/12/21 08:25:12;;;;;;;81.97;55.77;;;;;;;0.59;86.31;100044.28;124789;1100;65210;-80
2020/12/21 08:27:47;;;;;;;98.35;66.20;;;;;;;0.58;86.03;100037.27;124885;1100;65203;-80
2020/12/21 08:30:17;;;;;;;104.60;68.20;;;;;;;0.62;86.22;100036.38;124788;1100;65098;-80
2020/12/21 08:32:43;;;;;;;95.53;63.05;;;;;;;0.67;86.32;100036.34;124876;1100;65159;-80
2020/12/21 08:35:11;;;;;;;91.20;59.47;;;;;;;0.68;86.12;100027.57;124748;1101;65092;-80
2020/12/21 08:37:38;;;;;;;88.20;58.40;;;;;;;0.71;85.86;100027.53;124710;1099;65160;-80
2020/12/21 08:40:09;;;;;;;78.03;52.77;;;;;;;0.74;85.45;100027.50;124878;1100;65262;-80
2020/12/21 08:42:36;;;;;;;80.37;53.80;;;;;;;0.76;86.11;100026.59;124815;1100;65178;-80
2020/12/21 08:45:04;;;;;;;86.13;59.90;;;;;;;0.83;86.28;100020.41;124711;1101;65232;-80
2020/12/21 08:47:30;;;;;;;87.20;60.27;;;;;;;0.90;86.09;100034.34;124716;1100;65165;-81
2020/12/21 08:49:56;;;;;;;93.60;67.15;;;;;;;0.97;86.07;100032.50;124795;1100;65614;-81
2020/12/21 08:52:23;;;;;;;87.17;58.30;;;;;;;0.98;85.51;100024.63;124817;1100;65137;-81
2020/12/21 08:54:49;;;;;;;86.23;60.07;;;;;;;1.03;86.06;100021.95;124828;1100;65140;-81
2020/12/21 08:57:16;;;;;;;77.73;54.03;;;;;;;1.08;85.78;100028.03;124848;1100;65163;-82
2020/12/21 08:59:43;;;;;;;78.90;54.03;;;;;;;1.13;85.69;100022.70;124812;1100;65226;-80
2020/12/21 09:02:10;;;;;;;83.93;59.37;;;;;;;1.18;85.29;100027.00;124865;1100;65258;-80
2020/12/21 09:04:36;;;;;;;93.43;60.97;;;;;;;1.23;85.50;100025.19;124799;1100;65181;-81
2020/12/21 09:07:03;;;;;;;94.00;61.07;;;;;;;1.28;85.51;100030.39;124780;1099;65143;-80
2020/12/21 09:09:30;;;;;;;95.70;63.37;;;;;;;1.34;85.64;100024.19;124813;1100;65192;-80
2020/12/21 09:11:56;;;;;;;95.60;62.10;;;;;;;1.37;85.28;100030.29;124763;1101;65083;-80
2020/12/21 09:14:25;;;;;;;92.50;62.53;;;;;;;1.43;85.40;100017.06;124798;1100;65313;-80
2020/12/21 09:16:52;;;;;;;88.07;58.07;;;;;;;1.46;85.17;100024.91;124802;1098;65155;-80
2020/12/21 09:19:19;;;;;;;85.30;58.70;;;;;;;1.53;85.34;100015.20;124759;1101;65198;-81
2020/12/21 09:21:46;;;;;;;90.23;60.27;;;;;;;1.52;85.07;100011.67;124755;1102;65271;-80
2020/12/21 09:24:13;;;;;;;98.50;63.30;;;;;;;1.53;85.12;100004.69;124830;1100;65265;-80
2020/12/21 09:26:39;;;;;;;97.60;64.47;;;;;;;1.56;84.78;100002.02;124769;1101;65246;-80
2020/12/21 09:29:07;;;;;;;93.13;62.43;;;;;;;1.60;84.73;100005.45;124785;1101;65660;-80
2020/12/21 09:31:33;;;;;;;95.13;63.80;;;;;;;1.59;84.73;100001.96;124783;1101;65140;-80
2020/12/21 09:34:00;;;;;;;90.93;62.17;;;;;;;1.56;84.91;100001.15;124803;1101;65149;-81
2020/12/21 09:36:27;;;;;;;100.87;65.43;;;;;;;1.56;84.73;100002.02;124766;1101;65152;-80
2020/12/21 09:38:53;;;;;;;97.13;67.80;;;;;;;1.61;84.39;99999.33;124786;1101;65114;-80
2020/12/21 09:41:22;;;;;;;100.10;71.37;;;;;;;1.62;85.10;99999.28;124777;1101;65191;-80
2020/12/21 09:43:49;;;;;;;100.33;69.37;;;;;;;1.66;84.81;99997.47;124826;1101;65195;-80
2020/12/21 09:46:24;;;;;;;94.43;66.60;;;;;;;1.69;84.90;100000.94;124761;1102;65243;-80
2020/12/21 09:48:52;;;;;;;96.30;64.60;;;;;;;1.75;84.75;99995.59;124763;1101;65540;-80
2020/12/21 09:51:22;;;;;;;95.17;64.37;;;;;;;1.82;84.60;99995.48;124837;1101;65335;-80
2020/12/21 09:53:48;;;;;;;91.30;64.87;;;;;;;1.86;85.00;99986.67;124767;1101;65127;-80
2020/12/21 09:56:16;;;;;;;94.83;69.40;;;;;;;1.92;84.52;99984.83;124767;1101;65131;-80
2020/12/21 09:58:45;;;;;;;94.95;65.50;;;;;;;1.98;84.28;99982.09;124835;1101;65181;-80
2020/12/21 10:01:13;;;;;;;100.87;68.10;;;;;;;1.99;84.52;99982.95;124823;1101;65188;-80
2020/12/21 10:03:40;;;;;;;97.23;64.50;;;;;;;1.95;84.49;99968.14;124799;1101;65562;-80
2020/12/21 10:06:09;;;;;;;91.20;62.90;;;;;;;1.98;84.72;99968.95;124785;1101;65076;-80
2020/12/21 10:08:36;;;;;;;94.60;65.80;;;;;;;2.05;84.05;99974.95;124816;1101;65146;-80
2020/12/21 10:11:03;;;;;;;94.23;66.80;;;;;;;2.12;84.13;99966.08;124809;1101;65137;-80
2020/12/21 10:13:30;;;;;;;97.80;66.57;;;;;;;2.17;84.42;99972.13;124832;1101;65146;-80
2020/12/21 10:15:57;;;;;;;97.97;68.70;;;;;;;2.19;83.85;99962.47;124792;1101;65252;-80
2020/12/21 10:18:23;;;;;;;99.57;68.17;;;;;;;2.16;84.32;99964.29;124781;1101;65179;-80
2020/12/21 10:20:49;;;;;;;101.57;71.33;;;;;;;2.16;83.99;99969.55;124776;1101;65186;-80
2020/12/21 10:23:16;;;;;;;96.40;67.03;;;;;;;2.18;83.63;99973.86;124738;1101;65147;-80
2020/12/21 10:25:43;;;;;;;93.83;66.10;;;;;;;2.22;83.90;99964.17;124813;1101;65268;-80
2020/12/21 10:28:09;;;;;;;86.37;63.07;;;;;;;2.24;83.87;99965.02;124740;1101;65444;-80
2020/12/21 10:30:36;;;;;;;89.80;65.57;;;;;;;2.23;84.24;99967.66;124793;1101;65155;-80
2020/12/21 10:33:02;;;;;;;93.30;69.37;;;;;;;2.20;84.36;99971.22;124825;1101;65194;-80
2020/12/21 10:35:30;;;;;;;94.33;67.63;;;;;;;2.19;84.20;99970.35;124898;1100;65152;-80
2020/12/21 10:37:57;;;;;;;96.20;70.57;;;;;;;2.22;84.51;99958.05;124923;1098;65162;-80
2020/12/21 10:40:24;;;;;;;98.30;71.40;;;;;;;2.26;84.58;99967.61;124876;1098;65291;-80
2020/12/21 10:42:50;;;;;;;103.70;72.90;;;;;;;2.27;84.53;99964.96;124888;1100;65692;-80
2020/12/21 10:45:17;;;;;;;90.17;65.30;;;;;;;2.30;84.31;99964.05;124807;1100;65208;-80
2020/12/21 10:47:43;;;;;;;87.63;63.97;;;;;;;2.33;84.53;99959.58;124955;1100;65163;-86
2020/12/21 10:50:10;;;;;;;89.23;64.67;;;;;;;2.48;84.97;99944.44;124914;1100;65157;-87
2020/12/21 10:52:36;;;;;;;76.47;55.03;;;;;;;2.70;84.21;99943.11;124769;1100;65117;-86
2020/12/21 10:55:04;;;;;;;83.00;60.98;;;;;;;2.88;83.98;99952.41;124808;1100;65268;-86
2020/12/21 10:57:30;;;;;;;86.70;61.07;;;;;;;3.10;84.15;99946.70;124776;1100;65542;-85
2020/12/21 10:59:57;;;;;;;86.83;60.23;;;;;;;3.18;83.47;99947.39;124923;1098;65139;-86
2020/12/21 11:02:23;;;;;;;78.10;58.08;;;;;;;3.22;83.16;99946.44;124832;1100;65181;-86
2020/12/21 11:04:49;;;;;;;74.47;55.90;;;;;;;3.24;83.47;99944.65;124859;1100;65211;-85
2020/12/21 11:07:16;;;;;;;77.57;56.10;;;;;;;3.17;82.79;99933.36;124807;1100;65211;-85
2020/12/21 11:09:42;;;;;;;81.57;58.27;;;;;;;3.19;82.99;99939.47;124983;1098;65160;-85